Terminal Aerodrome Forecast
Issued by NWS

Home | Current Version | Previous Version | Text Only | Print | Product List | Glossary On
Versions: 1 2 3 4 5 6 7 8 9 10 11 12 13 14 15 16 17 18 19 20 21 22 23 24 25 26 27 28 29 30 31 32 33 34 35 36 37 38 39 40 41 42
217
FTPQ31 PGUM 170527
TAFGUM
TAF

TAF
PTRO 170526Z 1706/1806 24010G20KT 4SM SHRA BKN016 BKN040 OVC100
      TEMPO 1706/1709 25015G28KT 2SM +SHRA BKN014 OVC030
     FM171000 26013G20KT 5SM -RA BKN016 BKN040 OVC100=

USA.gov is the U.S. government's official web portal to all federal, state and local government web resources and services.